Time;durP1;ratioP1;P1;durP2;ratioP2;P2;SDS_P1;SDS_P2;PMS_P1;PMS_P2;Temp;Humidity;BMP_temperature;BMP_pressure;BME280_temperature;BME280_humidity;BME280_pressure;Samples;Min_cycle;Max_cycle;Signal;HPM_P1;HPM_P2
2023/05/31 00:02:18;;;;;;;13.27;5.57;;;12.10;99.90;;;;;;5051507;28;20056;-71
2023/05/31 00:04:43;;;;;;;12.57;5.43;;;12.10;99.90;;;;;;5051976;28;20025;-71
2023/05/31 00:07:09;;;;;;;10.60;5.75;;;12.10;99.90;;;;;;5051519;28;20516;-73
2023/05/31 00:09:35;;;;;;;9.65;5.72;;;12.20;99.90;;;;;;5051103;28;20610;-71
2023/05/31 00:12:01;;;;;;;11.05;5.25;;;12.10;99.90;;;;;;5051631;28;20420;-71
2023/05/31 00:14:26;;;;;;;13.20;5.43;;;12.10;99.90;;;;;;5050521;28;20363;-71
2023/05/31 00:16:52;;;;;;;7.65;4.80;;;12.00;99.90;;;;;;5051969;28;20060;-71
2023/05/31 00:19:18;;;;;;;10.35;6.07;;;11.90;99.90;;;;;;5051106;28;20107;-72
2023/05/31 00:21:45;;;;;;;11.18;5.57;;;12.00;99.90;;;;;;5051752;28;20100;-71
2023/05/31 00:24:16;;;;;;;12.70;5.32;;;11.90;99.90;;;;;;5051822;28;20029;-71
2023/05/31 00:26:42;;;;;;;12.10;5.53;;;11.90;99.90;;;;;;5051861;28;20049;-71
2023/05/31 00:29:07;;;;;;;9.77;4.95;;;11.90;99.90;;;;;;5051250;28;20031;-71
2023/05/31 00:31:33;;;;;;;10.95;4.75;;;11.80;99.90;;;;;;5051283;28;20028;-71
2023/05/31 00:33:59;;;;;;;14.73;5.10;;;11.80;99.90;;;;;;5051763;28;20029;-71
2023/05/31 00:36:24;;;;;;;10.70;5.28;;;11.70;99.90;;;;;;5050941;28;20390;-71
2023/05/31 00:38:50;;;;;;;12.55;5.47;;;11.70;99.90;;;;;;5051636;28;20025;-71
2023/05/31 00:41:17;;;;;;;13.07;5.75;;;11.60;99.90;;;;;;5051298;28;20021;-73
2023/05/31 00:43:43;;;;;;;11.85;5.85;;;11.60;99.90;;;;;;5050925;28;20040;-71
2023/05/31 00:46:41;;;;;;;12.70;5.63;;;11.50;99.90;;;;;;5051151;28;20166;-71
2023/05/31 00:49:07;;;;;;;13.57;6.57;;;11.50;99.90;;;;;;5028148;28;20037;-72
2023/05/31 00:51:35;;;;;;;11.52;5.80;;;11.50;99.90;;;;;;5050358;28;20438;-71
2023/05/31 00:54:02;;;;;;;11.05;5.22;;;11.50;99.90;;;;;;5050668;28;20056;-71
2023/05/31 00:56:28;;;;;;;11.82;6.07;;;11.50;99.90;;;;;;5049009;28;20106;-72
2023/05/31 00:58:57;;;;;;;11.63;5.80;;;11.50;99.90;;;;;;5050766;28;20423;-72
2023/05/31 01:01:27;;;;;;;13.75;6.45;;;11.50;99.90;;;;;;5050296;28;20327;-71
2023/05/31 01:03:56;;;;;;;11.38;6.03;;;11.60;99.90;;;;;;5050874;28;20113;-71
2023/05/31 01:06:23;;;;;;;10.77;6.00;;;11.50;99.90;;;;;;5049909;28;20467;-71
2023/05/31 01:08:50;;;;;;;9.80;5.47;;;11.50;99.90;;;;;;5049498;28;20021;-71
2023/05/31 01:11:25;;;;;;;13.98;6.25;;;11.60;99.90;;;;;;5050383;28;20040;-71
2023/05/31 01:14:15;;;;;;;10.02;5.53;;;11.50;99.90;;;;;;5051126;28;20036;-71
2023/05/31 01:16:54;;;;;;;10.70;5.78;;;11.50;99.90;;;;;;5049762;28;20044;-71
2023/05/31 01:19:39;;;;;;;10.70;5.47;;;11.50;99.90;;;;;;5050756;28;20100;-73
2023/05/31 01:22:23;;;;;;;17.38;6.70;;;11.40;99.90;;;;;;5049619;28;20033;-71
2023/05/31 01:25:23;;;;;;;15.50;6.07;;;11.40;99.90;;;;;;5050595;28;20025;-72
2023/05/31 01:27:50;;;;;;;8.65;5.45;;;11.30;99.90;;;;;;5049424;28;20497;-71
2023/05/31 01:30:17;;;;;;;11.15;5.82;;;11.30;99.90;;;;;;5050324;28;20111;-71
2023/05/31 01:32:44;;;;;;;10.80;6.15;;;11.20;99.90;;;;;;5050019;28;20043;-71
2023/05/31 01:35:10;;;;;;;11.18;5.35;;;11.30;99.90;;;;;;5050101;28;20025;-71
2023/05/31 01:37:36;;;;;;;9.88;5.80;;;11.30;99.90;;;;;;5050010;28;20037;-71
2023/05/31 01:40:03;;;;;;;9.75;5.20;;;11.30;99.90;;;;;;5049096;28;20366;-71
2023/05/31 01:42:30;;;;;;;12.75;6.22;;;11.30;99.90;;;;;;5049960;28;20040;-71
2023/05/31 01:44:57;;;;;;;8.77;5.28;;;11.20;99.90;;;;;;5050389;28;20100;-71
2023/05/31 01:47:23;;;;;;;11.57;6.20;;;11.20;99.90;;;;;;5048390;28;20051;-71
2023/05/31 01:49:50;;;;;;;12.27;6.13;;;11.20;99.90;;;;;;5050741;28;20021;-72
2023/05/31 01:52:18;;;;;;;12.40;6.38;;;11.30;99.90;;;;;;5050730;28;20040;-71
2023/05/31 01:54:44;;;;;;;11.70;6.53;;;11.30;99.90;;;;;;5050176;28;20025;-71
2023/05/31 01:57:12;;;;;;;10.95;6.05;;;11.30;99.90;;;;;;5050456;28;20083;-71
2023/05/31 01:59:38;;;;;;;10.73;6.10;;;11.30;99.90;;;;;;5049668;28;20025;-71
2023/05/31 02:02:05;;;;;;;12.32;5.60;;;11.40;99.90;;;;;;5050114;28;20033;-71
2023/05/31 02:04:30;;;;;;;11.15;5.90;;;11.30;99.90;;;;;;5049600;28;20036;-71
2023/05/31 02:06:57;;;;;;;14.77;7.20;;;11.30;99.90;;;;;;5049703;28;20033;-71
2023/05/31 02:09:23;;;;;;;13.40;6.25;;;11.30;99.90;;;;;;5049617;28;20041;-73
2023/05/31 02:11:49;;;;;;;11.65;5.95;;;11.20;99.90;;;;;;5049913;28;20029;-71
2023/05/31 02:14:15;;;;;;;10.00;5.88;;;11.20;99.90;;;;;;5049775;28;20037;-71
2023/05/31 02:16:40;;;;;;;9.90;5.68;;;11.20;99.90;;;;;;5049286;28;20025;-71
2023/05/31 02:19:06;;;;;;;10.75;5.72;;;11.20;99.90;;;;;;5049728;28;20112;-71
2023/05/31 02:21:35;;;;;;;9.65;6.25;;;11.10;99.90;;;;;;5049245;28;20183;-71
2023/05/31 02:24:01;;;;;;;11.63;6.68;;;11.00;99.90;;;;;;5049768;28;20446;-71
2023/05/31 02:26:27;;;;;;;11.93;5.90;;;11.00;99.90;;;;;;5048832;28;20048;-71
2023/05/31 02:28:53;;;;;;;10.57;5.80;;;11.00;99.90;;;;;;5051690;28;20430;-72
2023/05/31 02:31:19;;;;;;;10.23;5.40;;;11.00;99.90;;;;;;5053361;28;20100;-71
2023/05/31 02:33:45;;;;;;;13.02;5.85;;;10.90;99.90;;;;;;5052666;28;20086;-71
2023/05/31 02:36:11;;;;;;;10.65;5.25;;;10.90;99.90;;;;;;5053292;28;20028;-71
2023/05/31 02:38:38;;;;;;;9.90;5.57;;;10.90;99.90;;;;;;5052685;28;20450;-71
2023/05/31 02:41:03;;;;;;;9.95;5.35;;;10.90;99.90;;;;;;5053064;28;20112;-71
2023/05/31 02:43:30;;;;;;;10.52;5.88;;;10.90;99.90;;;;;;5052404;28;20096;-71
2023/05/31 02:45:56;;;;;;;10.13;5.60;;;10.90;99.90;;;;;;5053002;28;20028;-71
2023/05/31 02:48:22;;;;;;;12.10;5.50;;;10.90;99.90;;;;;;5053074;28;20542;-71
2023/05/31 02:50:48;;;;;;;11.23;6.68;;;10.90;99.90;;;;;;5052431;28;20100;-71
2023/05/31 02:53:13;;;;;;;12.20;6.25;;;10.80;99.90;;;;;;5053175;28;20031;-71
2023/05/31 02:55:40;;;;;;;8.13;6.43;;;10.80;99.90;;;;;;5052258;28;20047;-71
2023/05/31 02:58:06;;;;;;;10.65;5.90;;;10.70;99.90;;;;;;5052822;28;20029;-71
2023/05/31 03:00:33;;;;;;;11.73;5.82;;;10.80;99.90;;;;;;5052391;28;20028;-70
2023/05/31 03:02:58;;;;;;;11.13;5.78;;;10.70;99.90;;;;;;5051750;28;20036;-70
2023/05/31 03:05:26;;;;;;;9.68;6.18;;;10.60;99.90;;;;;;5052768;28;20025;-71
2023/05/31 03:07:51;;;;;;;12.65;6.05;;;10.50;99.90;;;;;;5053013;28;20064;-71
2023/05/31 03:10:17;;;;;;;11.02;5.93;;;10.50;99.90;;;;;;5051575;28;20162;-71
2023/05/31 03:12:43;;;;;;;8.90;5.80;;;10.50;99.90;;;;;;5052583;28;20033;-71
2023/05/31 03:15:09;;;;;;;10.77;6.00;;;10.40;99.90;;;;;;5052821;28;20029;-71
2023/05/31 03:17:37;;;;;;;14.43;6.47;;;10.30;99.90;;;;;;5051954;28;20040;-71
2023/05/31 03:20:06;;;;;;;11.95;6.57;;;10.40;99.90;;;;;;5052646;28;20036;-70
2023/05/31 03:22:32;;;;;;;15.77;6.88;;;10.30;99.90;;;;;;5051849;28;20033;-71
2023/05/31 03:24:58;;;;;;;10.48;6.75;;;10.30;99.90;;;;;;5052696;28;20025;-71
2023/05/31 03:27:23;;;;;;;9.88;6.00;;;10.30;99.90;;;;;;5051917;28;20063;-71
2023/05/31 03:29:50;;;;;;;11.70;5.85;;;10.30;99.90;;;;;;5051482;28;20048;-71
2023/05/31 03:32:16;;;;;;;10.43;6.22;;;10.20;99.90;;;;;;5051854;28;20033;-70
2023/05/31 03:34:42;;;;;;;10.35;6.57;;;10.30;99.90;;;;;;5051644;28;20501;-72
2023/05/31 03:37:07;;;;;;;11.13;6.60;;;10.20;99.90;;;;;;5052047;28;20116;-72
2023/05/31 03:39:33;;;;;;;9.65;6.28;;;10.30;99.90;;;;;;5049834;28;20449;-72
2023/05/31 03:42:01;;;;;;;9.02;5.97;;;10.30;99.90;;;;;;5050742;28;20025;-71
2023/05/31 03:44:27;;;;;;;16.20;7.15;;;10.20;99.90;;;;;;5051825;28;20025;-73
2023/05/31 03:46:53;;;;;;;14.82;6.60;;;10.20;99.90;;;;;;5050087;28;20043;-72
2023/05/31 03:49:19;;;;;;;11.57;6.13;;;10.20;99.90;;;;;;5052121;28;20151;-72
2023/05/31 03:51:45;;;;;;;12.88;6.00;;;10.20;99.90;;;;;;5051391;28;20039;-72
2023/05/31 03:54:11;;;;;;;12.30;6.05;;;10.10;99.90;;;;;;5051679;28;20025;-72
2023/05/31 03:56:36;;;;;;;9.95;5.95;;;10.10;99.90;;;;;;5051055;28;20162;-73
2023/05/31 03:59:03;;;;;;;8.40;6.50;;;10.10;99.90;;;;;;5051888;28;20094;-72
2023/05/31 04:01:29;;;;;;;11.50;5.57;;;10.10;99.90;;;;;;5051261;28;20517;-74
2023/05/31 04:03:55;;;;;;;10.70;5.80;;;10.10;99.90;;;;;;5051555;28;20029;-71
2023/05/31 04:06:20;;;;;;;11.48;5.55;;;10.20;99.90;;;;;;5051813;28;20025;-72
2023/05/31 04:08:46;;;;;;;10.60;5.57;;;10.10;99.90;;;;;;5050984;28;20028;-72
2023/05/31 04:11:12;;;;;;;11.20;5.40;;;10.20;99.90;;;;;;5051416;28;20643;-71
2023/05/31 04:13:38;;;;;;;9.93;6.53;;;10.20;99.90;;;;;;5050930;28;20032;-72
2023/05/31 04:16:04;;;;;;;7.93;5.43;;;10.30;99.90;;;;;;5051165;28;20028;-71
2023/05/31 04:18:30;;;;;;;9.13;6.22;;;10.20;99.90;;;;;;5049652;28;20033;-73
2023/05/31 04:20:55;;;;;;;13.75;6.30;;;10.20;99.90;;;;;;5050798;28;20031;-72
2023/05/31 04:23:21;;;;;;;9.77;5.97;;;10.20;99.90;;;;;;5051141;28;20036;-71
2023/05/31 04:25:47;;;;;;;9.77;5.85;;;10.20;99.90;;;;;;5050772;28;20106;-71
2023/05/31 04:28:15;;;;;;;9.77;5.93;;;10.20;99.90;;;;;;5051221;28;20046;-72
2023/05/31 04:30:41;;;;;;;9.88;5.78;;;10.20;99.90;;;;;;5050790;28;20041;-72
2023/05/31 04:33:06;;;;;;;9.02;5.68;;;10.20;99.90;;;;;;5050985;28;20079;-72
2023/05/31 04:35:33;;;;;;;9.10;5.53;;;10.10;99.90;;;;;;5050718;28;20033;-74
2023/05/31 04:38:02;;;;;;;12.63;6.60;;;10.10;99.90;;;;;;5050970;28;20525;-71
2023/05/31 04:40:31;;;;;;;9.88;5.70;;;10.20;99.90;;;;;;5051142;28;20032;-72
2023/05/31 04:43:03;;;;;;;9.43;5.72;;;10.10;99.90;;;;;;5050420;28;20032;-72
2023/05/31 04:45:30;;;;;;;9.88;5.70;;;10.10;99.90;;;;;;5051190;28;20052;-72
2023/05/31 04:47:57;;;;;;;10.48;5.72;;;10.10;99.90;;;;;;5050225;28;20060;-72
2023/05/31 04:50:23;;;;;;;10.05;6.25;;;10.10;99.90;;;;;;5050293;28;20211;-72
2023/05/31 04:52:48;;;;;;;10.63;6.03;;;10.10;99.90;;;;;;5049940;28;20174;-72
2023/05/31 04:55:14;;;;;;;10.35;6.28;;;10.10;99.90;;;;;;5050766;28;20024;-73
2023/05/31 04:57:40;;;;;;;10.50;5.78;;;10.20;99.90;;;;;;5050538;28;20064;-72
2023/05/31 05:00:16;;;;;;;14.82;6.68;;;10.30;99.90;;;;;;5049341;28;20419;-72
2023/05/31 05:02:43;;;;;;;11.77;6.47;;;10.40;99.90;;;;;;5050072;28;20061;-72
2023/05/31 05:05:09;;;;;;;7.45;5.03;;;10.60;99.90;;;;;;5050765;28;20021;-72
2023/05/31 05:07:35;;;;;;;9.70;5.63;;;10.80;99.90;;;;;;5050348;28;20032;-74
2023/05/31 05:10:01;;;;;;;9.30;5.15;;;11.00;99.90;;;;;;5050390;28;20079;-72
2023/05/31 05:12:26;;;;;;;7.78;4.65;;;11.10;99.90;;;;;;5050493;28;20029;-72
2023/05/31 05:14:52;;;;;;;8.73;4.97;;;11.20;99.90;;;;;;5048498;28;20029;-72
2023/05/31 05:17:18;;;;;;;8.70;5.65;;;11.30;99.90;;;;;;5050625;28;20029;-72
2023/05/31 05:19:44;;;;;;;9.48;5.43;;;11.50;99.90;;;;;;5049759;28;20453;-72
2023/05/31 05:22:10;;;;;;;9.77;5.35;;;11.70;99.90;;;;;;5050802;28;20060;-72
2023/05/31 05:24:36;;;;;;;10.30;5.22;;;11.90;99.90;;;;;;5050184;28;20017;-74
2023/05/31 05:27:02;;;;;;;9.23;4.70;;;12.00;99.90;;;;;;5049130;28;20176;-72
2023/05/31 05:29:28;;;;;;;8.43;5.10;;;12.10;99.90;;;;;;5050431;28;20051;-72
2023/05/31 05:31:54;;;;;;;7.43;5.00;;;12.20;99.90;;;;;;5049886;28;20033;-73
2023/05/31 05:34:20;;;;;;;9.95;5.22;;;12.40;99.90;;;;;;5050188;28;20033;-72
2023/05/31 05:36:46;;;;;;;11.27;5.60;;;12.40;99.90;;;;;;5049528;28;20438;-70
2023/05/31 05:39:12;;;;;;;9.63;5.25;;;12.50;99.90;;;;;;5050179;28;20040;-70
2023/05/31 05:41:38;;;;;;;11.50;5.60;;;12.60;99.90;;;;;;5049600;28;20112;-72
2023/05/31 05:44:04;;;;;;;11.50;5.03;;;12.70;99.90;;;;;;5049966;28;20057;-72
2023/05/31 05:46:29;;;;;;;12.52;5.10;;;12.80;99.90;;;;;;5050480;28;20029;-72
2023/05/31 05:48:56;;;;;;;9.90;4.80;;;13.00;99.90;;;;;;5049548;28;20025;-72
2023/05/31 05:51:22;;;;;;;9.65;5.00;;;13.10;99.90;;;;;;5050120;28;20025;-72
2023/05/31 05:53:48;;;;;;;12.43;5.88;;;13.30;99.90;;;;;;5049349;28;20422;-72
2023/05/31 05:56:19;;;;;;;13.07;5.70;;;13.40;99.90;;;;;;5050008;28;20107;-72
2023/05/31 05:58:48;;;;;;;8.83;4.70;;;13.60;99.90;;;;;;5049990;28;20033;-72
2023/05/31 06:01:19;;;;;;;14.27;5.95;;;13.70;99.90;;;;;;5050092;28;20262;-72
2023/05/31 06:03:49;;;;;;;9.02;5.25;;;13.90;99.90;;;;;;5053642;28;20037;-72
2023/05/31 06:06:16;;;;;;;9.98;5.90;;;14.00;99.90;;;;;;5054444;28;20033;-72
2023/05/31 06:08:43;;;;;;;7.72;4.97;;;14.10;99.90;;;;;;5053817;28;20484;-73
2023/05/31 06:11:08;;;;;;;10.07;5.55;;;14.30;99.90;;;;;;5054432;28;20067;-72
2023/05/31 06:13:34;;;;;;;13.02;6.38;;;14.40;99.90;;;;;;5054478;28;20374;-74
2023/05/31 06:16:01;;;;;;;17.23;6.75;;;14.60;99.90;;;;;;5053512;28;20028;-72
2023/05/31 06:18:27;;;;;;;13.65;6.50;;;14.70;99.90;;;;;;5053667;28;20025;-72
2023/05/31 06:20:55;;;;;;;15.10;7.30;;;14.80;99.90;;;;;;5053075;28;20051;-72
2023/05/31 06:23:21;;;;;;;14.52;6.43;;;14.90;99.90;;;;;;5054101;28;20474;-72
2023/05/31 06:25:46;;;;;;;17.77;7.30;;;14.80;99.90;;;;;;5052812;28;20041;-72
2023/05/31 06:28:12;;;;;;;16.63;7.30;;;14.90;99.90;;;;;;5053923;28;20458;-72
2023/05/31 06:30:38;;;;;;;17.10;6.75;;;15.00;99.90;;;;;;5053449;28;20153;-74
2023/05/31 06:33:03;;;;;;;14.57;7.38;;;14.90;99.90;;;;;;5052700;28;20025;-72
2023/05/31 06:35:30;;;;;;;13.02;6.85;;;15.00;99.90;;;;;;5053472;28;20451;-72
2023/05/31 06:37:55;;;;;;;20.77;7.78;;;15.00;99.90;;;;;;5052378;28;20154;-73
2023/05/31 06:40:22;;;;;;;13.20;6.72;;;15.20;99.90;;;;;;5053131;28;20565;-72
2023/05/31 06:42:47;;;;;;;13.80;6.07;;;15.40;99.90;;;;;;5053172;28;20032;-73
2023/05/31 06:45:13;;;;;;;9.57;5.97;;;15.60;99.90;;;;;;5053210;28;20032;-72
2023/05/31 06:47:40;;;;;;;14.05;6.63;;;15.80;99.90;;;;;;5053207;28;20467;-74
2023/05/31 06:50:06;;;;;;;12.45;5.60;;;16.00;99.90;;;;;;5052740;28;20079;-72
2023/05/31 06:52:32;;;;;;;13.20;5.82;;;16.20;99.90;;;;;;5053182;28;20086;-72
2023/05/31 06:54:57;;;;;;;13.20;5.55;;;16.20;99.90;;;;;;5052451;28;20412;-72
2023/05/31 06:57:23;;;;;;;11.10;6.18;;;16.30;99.90;;;;;;5053567;28;20443;-72
2023/05/31 06:59:49;;;;;;;12.35;6.35;;;16.30;99.90;;;;;;5050928;28;20036;-73
2023/05/31 07:02:16;;;;;;;12.85;6.13;;;16.30;99.90;;;;;;5052690;28;20074;-72
2023/05/31 07:04:42;;;;;;;13.20;5.90;;;16.30;99.90;;;;;;5052636;28;20100;-75
2023/05/31 07:07:09;;;;;;;14.93;5.60;;;16.30;99.90;;;;;;5053102;28;20033;-73
2023/05/31 07:09:35;;;;;;;13.93;6.38;;;16.40;99.90;;;;;;5052811;28;20454;-73
2023/05/31 07:12:01;;;;;;;8.35;6.15;;;16.50;99.90;;;;;;5050998;28;20021;-73
2023/05/31 07:14:30;;;;;;;10.02;6.20;;;16.60;99.90;;;;;;5050818;28;20183;-74
2023/05/31 07:16:56;;;;;;;10.25;6.20;;;16.50;99.90;;;;;;5051502;28;20033;-73
2023/05/31 07:19:22;;;;;;;13.77;6.72;;;16.50;99.90;;;;;;5052410;28;20025;-72
2023/05/31 07:21:47;;;;;;;13.85;6.28;;;16.60;99.90;;;;;;5051708;28;20028;-73
2023/05/31 07:24:13;;;;;;;12.63;6.65;;;16.60;99.90;;;;;;5052182;28;20115;-73
2023/05/31 07:26:39;;;;;;;11.45;6.25;;;16.30;99.90;;;;;;5052393;28;20041;-72
2023/05/31 07:29:04;;;;;;;16.02;6.32;;;16.30;99.90;;;;;;5050551;28;20071;-73
2023/05/31 07:31:30;;;;;;;14.85;6.95;;;16.40;99.90;;;;;;5051866;28;20097;-73
2023/05/31 07:33:56;;;;;;;14.20;6.45;;;16.40;99.90;;;;;;5051840;28;20048;-73
2023/05/31 07:36:24;;;;;;;16.08;6.18;;;16.40;99.90;;;;;;5052172;28;20067;-72
2023/05/31 07:38:54;;;;;;;10.93;6.57;;;16.50;99.90;;;;;;5051502;28;20513;-73
2023/05/31 07:41:20;;;;;;;18.50;6.80;;;16.60;99.90;;;;;;5050688;28;20025;-73
2023/05/31 07:43:46;;;;;;;10.63;5.78;;;16.50;99.90;;;;;;5050215;28;20028;-73
2023/05/31 07:46:12;;;;;;;16.23;6.57;;;16.50;99.90;;;;;;5051661;28;20032;-73
2023/05/31 07:48:38;;;;;;;12.88;6.65;;;16.60;99.90;;;;;;5051731;28;20519;-73
2023/05/31 07:51:04;;;;;;;12.82;6.10;;;16.70;99.90;;;;;;5051074;28;20567;-73
2023/05/31 07:53:30;;;;;;;13.38;5.75;;;16.70;99.90;;;;;;5052033;28;20036;-72
2023/05/31 07:55:56;;;;;;;14.70;6.28;;;16.50;99.90;;;;;;5051476;28;20025;-73
2023/05/31 07:58:21;;;;;;;10.00;5.43;;;16.30;99.90;;;;;;5052200;28;20036;-73
2023/05/31 08:00:49;;;;;;;14.75;6.82;;;16.30;99.90;;;;;;5051352;28;20052;-73
2023/05/31 08:03:15;;;;;;;13.30;6.60;;;16.20;99.90;;;;;;5051972;28;20029;-73
2023/05/31 08:05:41;;;;;;;11.95;6.38;;;16.20;99.90;;;;;;5051552;28;20033;-73
2023/05/31 08:08:07;;;;;;;17.23;6.18;;;16.20;99.90;;;;;;5051002;28;20102;-73
2023/05/31 08:10:32;;;;;;;13.10;7.13;;;16.30;99.90;;;;;;5051873;28;20102;-73
2023/05/31 08:12:58;;;;;;;15.13;6.30;;;16.40;99.90;;;;;;5050638;28;20033;-73
2023/05/31 08:15:24;;;;;;;14.23;6.20;;;16.40;99.90;;;;;;5051527;28;20025;-73
2023/05/31 08:17:50;;;;;;;16.60;6.55;;;16.60;99.90;;;;;;5050867;28;20490;-73
2023/05/31 08:20:16;;;;;;;14.40;5.80;;;16.80;99.90;;;;;;5051369;28;20028;-73
2023/05/31 08:22:44;;;;;;;13.73;6.05;;;17.10;99.90;;;;;;5051029;28;20063;-73
2023/05/31 08:25:12;;;;;;;15.43;6.15;;;17.20;99.90;;;;;;5051625;28;20074;-73
2023/05/31 08:27:42;;;;;;;12.18;6.30;;;17.10;99.90;;;;;;5051313;28;20347;-73
2023/05/31 08:30:12;;;;;;;11.13;5.25;;;17.10;99.90;;;;;;5050444;28;20102;-72
2023/05/31 08:32:38;;;;;;;12.70;6.05;;;17.10;99.90;;;;;;5050915;28;20036;-73
2023/05/31 08:35:06;;;;;;;13.13;5.43;;;16.90;99.90;;;;;;5050423;28;20095;-71
2023/05/31 08:37:32;;;;;;;9.65;5.32;;;16.70;99.90;;;;;;5050098;28;20097;-71
2023/05/31 08:39:58;;;;;;;9.07;5.90;;;16.60;99.90;;;;;;5050014;28;20028;-71
2023/05/31 08:42:50;;;;;;;11.32;5.22;;;16.60;99.90;;;;;;5050976;28;20040;-71
2023/05/31 08:45:17;;;;;;;8.60;5.50;;;16.70;99.90;;;;;;5050769;28;20028;-71
2023/05/31 08:47:45;;;;;;;15.82;5.03;;;16.70;99.90;;;;;;5051124;28;20361;-72
2023/05/31 08:50:12;;;;;;;15.23;5.43;;;16.80;99.90;;;;;;5050292;28;20040;-72
2023/05/31 08:52:38;;;;;;;9.57;5.10;;;16.60;99.90;;;;;;5050624;28;20115;-72
2023/05/31 08:55:05;;;;;;;9.18;5.40;;;16.60;99.90;;;;;;5049456;28;20025;-72
2023/05/31 08:57:31;;;;;;;13.95;6.00;;;16.50;99.90;;;;;;5050550;28;20491;-72
2023/05/31 09:00:00;;;;;;;9.82;5.18;;;16.50;99.90;;;;;;5049688;28;20505;-72
2023/05/31 09:02:27;;;;;;;12.38;5.95;;;16.30;99.90;;;;;;5049220;28;20535;-71
2023/05/31 09:04:54;;;;;;;10.95;5.32;;;16.50;99.90;;;;;;5049982;28;20040;-72
2023/05/31 09:07:19;;;;;;;10.95;4.78;;;16.50;99.90;;;;;;5050086;28;20377;-72
2023/05/31 09:09:45;;;;;;;9.10;5.10;;;16.50;99.90;;;;;;5050740;28;20025;-72
2023/05/31 09:12:11;;;;;;;8.68;5.20;;;16.70;99.90;;;;;;5048769;28;20034;-72
2023/05/31 09:14:38;;;;;;;7.22;5.30;;;16.80;99.90;;;;;;5050984;28;20088;-72
2023/05/31 09:17:04;;;;;;;11.65;5.53;;;16.60;99.90;;;;;;5049752;28;20102;-73
2023/05/31 09:19:30;;;;;;;15.90;5.07;;;16.20;99.90;;;;;;5051132;28;20450;-71
2023/05/31 09:21:56;;;;;;;10.23;5.45;;;16.10;99.90;;;;;;5050148;28;20358;-72
2023/05/31 09:24:22;;;;;;;13.38;5.93;;;16.00;99.90;;;;;;5050604;28;20040;-72
2023/05/31 09:26:52;;;;;;;11.55;5.90;;;16.00;99.90;;;;;;5049630;28;20444;-73
2023/05/31 09:29:19;;;;;;;9.25;5.13;;;15.70;99.90;;;;;;5050601;28;20021;-72
2023/05/31 09:31:45;;;;;;;11.60;5.40;;;15.90;99.90;;;;;;5050933;28;20036;-73
2023/05/31 09:34:29;;;;;;;11.98;5.85;;;16.10;99.90;;;;;;5049308;28;20053;-73
2023/05/31 09:36:58;;;;;;;16.00;6.13;;;16.20;99.90;;;;;;5048854;28;20041;-72
2023/05/31 09:39:24;;;;;;;10.82;5.60;;;16.30;99.90;;;;;;5050401;28;20033;-72
2023/05/31 09:41:51;;;;;;;10.88;6.22;;;16.40;99.90;;;;;;5049854;28;20489;-74
2023/05/31 09:44:17;;;;;;;8.77;5.07;;;16.40;99.90;;;;;;5050348;28;20051;-72
2023/05/31 09:46:46;;;;;;;10.57;6.38;;;16.30;99.90;;;;;;5049987;28;20552;-73
2023/05/31 09:49:12;;;;;;;11.52;6.60;;;16.50;99.90;;;;;;5049597;28;20029;-72
2023/05/31 09:51:38;;;;;;;10.40;5.97;;;16.60;99.90;;;;;;5050213;28;20022;-72
2023/05/31 09:54:17;;;;;;;11.50;6.50;;;16.40;99.90;;;;;;5049368;28;20086;-70
2023/05/31 09:56:43;;;;;;;10.43;5.90;;;16.30;99.90;;;;;;5050402;28;20029;-72
2023/05/31 09:59:09;;;;;;;13.80;6.03;;;16.50;99.90;;;;;;5049324;28;20425;-71
2023/05/31 10:01:36;;;;;;;11.57;5.95;;;16.70;99.90;;;;;;5050013;28;20029;-71
2023/05/31 10:04:03;;;;;;;12.75;6.75;;;16.70;99.90;;;;;;5049030;28;20438;-71
2023/05/31 10:06:36;;;;;;;12.98;6.80;;;16.70;99.90;;;;;;5049765;28;20056;-71
2023/05/31 10:09:05;;;;;;;11.75;6.72;;;16.70;99.90;;;;;;5049001;28;20037;-72
2023/05/31 10:11:36;;;;;;;11.95;6.55;;;16.80;99.90;;;;;;5049791;28;20029;-71
2023/05/31 10:14:06;;;;;;;13.48;5.97;;;16.80;99.90;;;;;;5048898;28;20037;-72
2023/05/31 10:16:44;;;;;;;13.65;5.80;;;16.90;99.90;;;;;;5049824;28;20032;-71
2023/05/31 10:19:12;;;;;;;13.50;6.50;;;16.90;99.90;;;;;;5048988;28;20037;-71
2023/05/31 10:21:43;;;;;;;13.93;6.10;;;16.90;99.90;;;;;;5048315;28;20383;-71
2023/05/31 10:24:17;;;;;;;10.30;6.20;;;17.00;99.90;;;;;;5049265;28;20116;-71
2023/05/31 10:27:36;;;;;;;14.10;6.50;;;16.70;99.90;;;;;;5049783;28;20057;-72
2023/05/31 10:30:06;;;;;;;10.40;5.60;;;16.30;99.90;;;;;;5026596;28;20163;-71
2023/05/31 10:32:43;;;;;;;12.77;6.45;;;16.20;99.90;;;;;;5045396;28;20029;-72
2023/05/31 10:35:10;;;;;;;10.52;6.18;;;16.10;99.90;;;;;;5048881;28;20029;-71
2023/05/31 10:37:41;;;;;;;11.95;6.10;;;16.30;99.90;;;;;;5049316;28;20462;-71
2023/05/31 10:40:15;;;;;;;12.57;5.78;;;16.20;99.90;;;;;;5048740;28;20433;-73
2023/05/31 10:42:59;;;;;;;13.43;6.30;;;16.20;99.90;;;;;;5049388;28;20029;-72
2023/05/31 10:45:46;;;;;;;10.95;6.00;;;16.30;99.90;;;;;;5049289;28;20090;-72
2023/05/31 10:48:22;;;;;;;8.95;5.32;;;16.50;99.90;;;;;;5049080;28;20406;-73
2023/05/31 10:50:57;;;;;;;11.18;6.40;;;16.70;99.90;;;;;;5052975;28;20041;-73
2023/05/31 10:53:34;;;;;;;12.07;5.50;;;16.60;99.90;;;;;;5051533;28;20127;-72
2023/05/31 10:56:05;;;;;;;9.98;4.72;;;16.70;99.90;;;;;;5052340;28;20028;-73
2023/05/31 10:58:39;;;;;;;9.80;5.22;;;16.30;99.90;;;;;;5052743;28;20039;-72
2023/05/31 11:01:08;;;;;;;11.60;5.15;;;16.40;99.90;;;;;;5052173;28;20025;-72
2023/05/31 11:03:35;;;;;;;9.25;5.70;;;16.10;99.90;;;;;;5052866;28;20029;-72
2023/05/31 11:06:08;;;;;;;11.63;4.93;;;16.10;99.90;;;;;;5052343;28;20087;-72
2023/05/31 11:08:34;;;;;;;8.45;5.32;;;16.10;99.90;;;;;;5052457;28;20029;-72
2023/05/31 11:11:25;;;;;;;14.23;5.72;;;16.00;99.90;;;;;;5052039;28;20035;-72
2023/05/31 11:14:03;;;;;;;12.13;4.88;;;15.60;99.90;;;;;;5052487;28;20044;-72
2023/05/31 11:16:33;;;;;;;11.88;4.63;;;15.90;99.90;;;;;;5051264;28;20044;-71
2023/05/31 11:19:03;;;;;;;8.52;5.28;;;15.90;99.90;;;;;;5051814;28;20025;-72
2023/05/31 11:21:55;;;;;;;9.50;5.10;;;15.70;99.90;;;;;;5052222;28;20071;-71
2023/05/31 11:24:53;;;;;;;11.43;4.68;;;15.90;99.90;;;;;;5051715;28;20082;-72
2023/05/31 11:27:21;;;;;;;7.72;4.90;;;16.00;99.90;;;;;;5051978;28;20108;-72
2023/05/31 11:29:52;;;;;;;7.75;4.50;;;16.00;99.90;;;;;;5051795;28;20339;-72
2023/05/31 11:32:20;;;;;;;9.27;4.38;;;16.10;99.90;;;;;;5052049;28;20047;-72
2023/05/31 11:34:56;;;;;;;12.45;5.40;;;16.30;99.90;;;;;;5052298;28;20021;-72
2023/05/31 11:37:22;;;;;;;10.75;5.03;;;16.10;99.90;;;;;;5052051;28;20131;-73
2023/05/31 11:39:48;;;;;;;10.13;4.53;;;16.30;99.90;;;;;;5051619;28;20108;-72
2023/05/31 11:42:15;;;;;;;8.30;4.93;;;16.30;99.90;;;;;;5051482;28;20532;-71
2023/05/31 11:44:45;;;;;;;8.30;4.60;;;16.20;99.90;;;;;;5051719;28;20454;-72
2023/05/31 11:47:19;;;;;;;8.45;4.78;;;16.10;99.90;;;;;;5051712;28;20106;-72
2023/05/31 11:49:46;;;;;;;8.88;5.70;;;16.20;99.90;;;;;;5051958;28;20044;-71
2023/05/31 11:52:17;;;;;;;8.77;5.65;;;16.20;99.90;;;;;;5051139;28;20091;-72
2023/05/31 11:54:44;;;;;;;9.10;5.75;;;16.20;99.90;;;;;;5051611;28;20131;-73
2023/05/31 11:57:10;;;;;;;10.45;5.57;;;16.30;99.90;;;;;;5051275;28;20029;-72
2023/05/31 11:59:37;;;;;;;9.45;6.07;;;16.40;99.90;;;;;;5050810;28;20378;-72
2023/05/31 12:02:06;;;;;;;11.05;5.80;;;16.60;99.90;;;;;;5050966;28;20408;-72
2023/05/31 12:04:37;;;;;;;11.50;5.93;;;16.60;99.90;;;;;;5051373;28;20021;-72
2023/05/31 12:07:05;;;;;;;12.82;6.93;;;16.50;99.90;;;;;;5050633;28;20032;-72
2023/05/31 12:09:33;;;;;;;13.13;6.85;;;16.20;99.90;;;;;;5051296;28;20021;-71
2023/05/31 12:12:00;;;;;;;12.98;7.68;;;16.30;99.90;;;;;;5051520;28;20053;-73
2023/05/31 12:14:26;;;;;;;15.38;6.55;;;16.40;99.90;;;;;;5051042;28;20104;-71
2023/05/31 12:16:53;;;;;;;9.98;7.07;;;16.60;99.90;;;;;;5050993;28;20056;-70
2023/05/31 12:19:20;;;;;;;15.48;8.63;;;16.30;99.90;;;;;;5050494;28;20108;-71
2023/05/31 12:21:46;;;;;;;10.10;8.07;;;16.30;99.90;;;;;;5051296;28;20033;-71
2023/05/31 12:24:17;;;;;;;11.52;8.15;;;16.40;99.90;;;;;;5050728;28;20104;-73
2023/05/31 12:26:44;;;;;;;13.43;8.73;;;16.20;99.90;;;;;;5051210;28;20497;-72
2023/05/31 12:29:12;;;;;;;14.23;8.13;;;16.40;99.90;;;;;;5050402;28;20028;-71
2023/05/31 12:31:39;;;;;;;13.75;8.93;;;16.40;99.90;;;;;;5051100;28;20116;-71
2023/05/31 12:34:04;;;;;;;12.43;7.38;;;16.60;99.90;;;;;;5049174;28;20043;-72
2023/05/31 12:36:48;;;;;;;13.70;8.15;;;16.50;99.90;;;;;;5050569;28;20029;-71
2023/05/31 12:39:25;;;;;;;13.85;7.95;;;16.20;99.90;;;;;;5050685;28;20059;-71
2023/05/31 12:41:51;;;;;;;10.95;7.20;;;16.40;99.90;;;;;;5050955;28;20123;-71
2023/05/31 12:44:21;;;;;;;12.63;7.43;;;16.20;99.90;;;;;;5050294;28;20124;-71
2023/05/31 12:46:48;;;;;;;13.02;6.95;;;16.20;99.90;;;;;;5049445;28;20028;-72